James Scully 5000m row

5,000

Meters

20:29.7

Time

2:02.9

Pace

326

Calories

Average Watts188
Calories Per Hour947
Stroke Rate32
Stroke Count665
Drag Factor143

May 02, 2026 19:34:00

Workout
RowErg

Workout Type
Fixed Distance

Weight Class
Hwt

Verified
Yes

Ranked
No

Entered
ErgData Android

Splits

Time Meters Pace Watts Cal/Hr Cal S/M
20:29.7 5,000 2:02.9 188 947 326 32
0:25.8 100 2:09.0 163 861 6 33
0:25.1 200 2:05.5 177 909 6 33
0:25.2 300 2:06.0 175 902 6 31
0:25.3 400 2:06.5 173 895 7 31
0:25.1 500 2:05.5 177 909 6 33
0:25.2 600 2:06.0 175 902 7 31
0:25.0 700 2:05.0 179 916 6 31
0:25.5 800 2:07.5 169 881 6 33
0:25.3 900 2:06.5 173 895 7 31
0:25.3 1,000 2:06.5 173 895 6 31
0:25.3 1,100 2:06.5 173 895 6 31
0:24.7 1,200 2:03.5 186 939 7 34
0:24.6 1,300 2:03.0 188 947 6 32
0:24.8 1,400 2:04.0 184 931 7 31
0:24.8 1,500 2:04.0 184 931 6 31
0:25.0 1,600 2:05.0 179 916 7 31
0:24.6 1,700 2:03.0 188 947 6 34
0:24.5 1,800 2:02.5 190 955 7 32
0:25.1 1,900 2:05.5 177 909 6 33
0:24.8 2,000 2:04.0 184 931 7 32
0:24.6 2,100 2:03.0 188 947 6 32
0:24.5 2,200 2:02.5 190 955 7 34
0:24.5 2,300 2:02.5 190 955 6 32
0:24.4 2,400 2:02.0 193 963 7 32
0:24.2 2,500 2:01.0 198 979 7 32
0:24.3 2,600 2:01.5 195 971 6 35
0:24.4 2,700 2:02.0 193 963 7 32
0:24.4 2,800 2:02.0 193 963 6 32
0:24.3 2,900 2:01.5 195 971 7 32
0:24.2 3,000 2:01.0 198 979 7 35
0:24.4 3,100 2:02.0 193 963 6 32
0:24.4 3,200 2:02.0 193 963 7 34
0:24.2 3,300 2:01.0 198 979 6 32
0:24.4 3,400 2:02.0 193 963 7 32
0:24.2 3,500 2:01.0 198 979 7 32
0:24.2 3,600 2:01.0 198 979 6 35
0:24.2 3,700 2:01.0 198 979 7 32
0:24.2 3,800 2:01.0 198 979 6 32
0:24.2 3,900 2:01.0 198 979 7 35
0:24.3 4,000 2:01.5 195 971 7 32
0:24.1 4,100 2:00.5 200 988 6 32
0:24.3 4,200 2:01.5 195 971 7 32
0:24.4 4,300 2:02.0 193 963 7 32
0:24.4 4,400 2:02.0 193 963 6 34
0:24.3 4,500 2:01.5 195 971 7 32
0:24.3 4,600 2:01.5 195 971 6 32
0:24.3 4,700 2:01.5 195 971 7 35
0:24.1 4,800 2:00.5 200 988 7 32
0:24.1 4,900 2:00.5 200 988 6 32
0:23.8 5,000 1:59.0 208 1014 7 33

Click and drag on the graph to zoom in on a section.

Workout Graph

Loading data.